createdAt,value
2022-12-25T00:02:09.558Z,101389.06
2022-12-25T00:04:35.962Z,101400.44
2022-12-25T00:07:02.632Z,101395.25
2022-12-25T00:09:29.227Z,101393.53
2022-12-25T00:11:55.571Z,101388.38
2022-12-25T00:14:21.968Z,101401.44
2022-12-25T00:16:48.397Z,101400.63
2022-12-25T00:19:14.939Z,101412.78
2022-12-25T00:21:41.297Z,101411.06
2022-12-25T00:24:07.705Z,101414.56
2022-12-25T00:26:34.061Z,101408.50
2022-12-25T00:29:00.433Z,101417.16
2022-12-25T00:31:27.788Z,101421.53
2022-12-25T00:33:54.370Z,101425.03
2022-12-25T00:36:22.233Z,101430.25
2022-12-25T00:38:48.829Z,101432.81
2022-12-25T00:41:41.120Z,101438.94
2022-12-25T00:44:10.025Z,101436.34
2022-12-25T00:46:37.043Z,101442.44
2022-12-25T00:49:03.711Z,101439.00
2022-12-25T00:51:30.074Z,101433.78
2022-12-25T00:53:56.972Z,101433.78
2022-12-25T00:56:23.342Z,101427.72
2022-12-25T00:58:49.839Z,101418.19
2022-12-25T01:01:16.381Z,101405.19
2022-12-25T01:03:43.212Z,101412.97
2022-12-25T01:06:12.753Z,101410.41
2022-12-25T01:09:03.636Z,101426.00
2022-12-25T01:11:31.307Z,101417.31
2022-12-25T01:13:57.839Z,101421.66
2022-12-25T01:16:24.648Z,101419.09
2022-12-25T01:18:51.196Z,101423.44
2022-12-25T01:21:21.026Z,101416.50
2022-12-25T01:23:50.097Z,101426.09
2022-12-25T01:26:18.603Z,101424.34
2022-12-25T01:28:45.746Z,101426.97
2022-12-25T01:31:14.772Z,101433.91
2022-12-25T01:33:42.581Z,101431.31
2022-12-25T01:36:17.755Z,101434.78
2022-12-25T01:38:45.099Z,101436.53
2022-12-25T01:41:13.876Z,101439.13
2022-12-25T01:44:00.623Z,101447.81
2022-12-25T01:46:27.794Z,101441.75
2022-12-25T01:48:58.850Z,101454.75
2022-12-25T01:51:32.800Z,101459.94
2022-12-25T01:54:03.731Z,101465.13
2022-12-25T01:56:31.529Z,101462.53
2022-12-25T01:58:59.494Z,101465.13
2022-12-25T02:01:26.044Z,101467.72
2022-12-25T02:04:01.201Z,101464.28
2022-12-25T02:06:30.584Z,101467.75
2022-12-25T02:08:58.246Z,101469.50
2022-12-25T02:11:43.331Z,101479.03
2022-12-25T02:14:09.926Z,101482.53
2022-12-25T02:16:58.254Z,101478.19
2022-12-25T02:19:57.377Z,101485.97
2022-12-25T02:22:56.314Z,101481.63
2022-12-25T02:25:41.286Z,101478.13
2022-12-25T02:28:23.603Z,101474.69
2022-12-25T02:31:18.707Z,101486.81
2022-12-25T02:34:20.623Z,101480.75
2022-12-25T02:36:54.948Z,101479.03
2022-12-25T02:40:00.061Z,101484.25
2022-12-25T02:42:53.420Z,101485.09
2022-12-25T02:45:47.516Z,101489.44
2022-12-25T02:48:34.409Z,101488.56
2022-12-25T02:51:23.831Z,101486.84
2022-12-25T02:54:12.228Z,101489.44
2022-12-25T02:57:00.307Z,101476.44
2022-12-25T02:59:47.826Z,101486.84
2022-12-25T03:02:35.370Z,101492.06
2022-12-25T03:05:26.160Z,101487.72
2022-12-25T03:07:52.969Z,101491.19
2022-12-25T03:10:39.822Z,101486.84
2022-12-25T03:13:14.731Z,101488.56
2022-12-25T03:16:00.253Z,101477.34
2022-12-25T03:18:29.902Z,101466.94
2022-12-25T03:21:15.275Z,101476.44
2022-12-25T03:24:04.168Z,101466.03
2022-12-25T03:26:48.992Z,101471.28
2022-12-25T03:29:35.443Z,101474.75
2022-12-25T03:32:48.059Z,101480.81
2022-12-25T03:35:24.207Z,101467.84
2022-12-25T03:38:30.296Z,101458.28
2022-12-25T03:41:31.312Z,101474.75
2022-12-25T03:44:39.598Z,101490.38
2022-12-25T03:47:37.564Z,101487.78
2022-12-25T03:50:49.225Z,101480.88
2022-12-25T03:53:42.774Z,101474.78
2022-12-25T03:56:28.535Z,101471.28
2022-12-25T03:59:22.937Z,101473.03
2022-12-25T04:02:09.657Z,101479.09
2022-12-25T04:04:55.092Z,101476.50
2022-12-25T04:07:39.811Z,101467.81
2022-12-25T04:10:25.754Z,101456.53
2022-12-25T04:13:11.111Z,101446.13
2022-12-25T04:15:56.023Z,101440.94
2022-12-25T04:18:41.180Z,101433.97
2022-12-25T04:21:25.881Z,101423.59
2022-12-25T04:24:15.235Z,101422.72
2022-12-25T04:27:00.157Z,101428.81
2022-12-25T04:29:47.351Z,101425.34
2022-12-25T04:32:32.316Z,101440.09
2022-12-25T04:35:17.173Z,101453.13
2022-12-25T04:37:43.729Z,101435.78
2022-12-25T04:40:10.356Z,101437.53
2022-12-25T04:42:36.915Z,101428.84
2022-12-25T04:45:03.688Z,101427.13
2022-12-25T04:47:30.291Z,101425.38
2022-12-25T04:49:56.653Z,101426.25
2022-12-25T04:52:23.153Z,101419.31
2022-12-25T04:54:49.495Z,101435.78
2022-12-25T04:57:17.032Z,101441.84
2022-12-25T04:59:43.379Z,101434.09
2022-12-25T05:02:09.900Z,101422.81
2022-12-25T05:04:36.319Z,101416.75
2022-12-25T05:07:02.834Z,101414.16
2022-12-25T05:09:29.262Z,101416.75
2022-12-25T05:11:55.855Z,101416.72
2022-12-25T05:14:22.229Z,101407.22
2022-12-25T05:16:48.759Z,101401.13
2022-12-25T05:19:15.268Z,101402.84
2022-12-25T05:21:41.638Z,101395.09
2022-12-25T05:24:08.221Z,101407.22
2022-12-25T05:26:34.740Z,101401.16
2022-12-25T05:29:02.168Z,101403.75
2022-12-25T05:31:28.560Z,101388.13
2022-12-25T05:33:55.066Z,101391.59
2022-12-25T05:36:21.470Z,101388.09
2022-12-25T05:38:48.072Z,101390.69
2022-12-25T05:41:14.455Z,101383.75
2022-12-25T05:43:40.890Z,101380.28
2022-12-25T05:46:09.076Z,101389.81
2022-12-25T05:48:37.424Z,101392.38
2022-12-25T05:51:09.848Z,101384.56
2022-12-25T05:53:36.903Z,101378.53
2022-12-25T05:56:06.102Z,101382.88
2022-12-25T05:58:34.245Z,101389.75
2022-12-25T06:01:01.341Z,101392.38
2022-12-25T06:03:30.156Z,101384.53
2022-12-25T06:05:56.603Z,101392.34
2022-12-25T06:08:23.109Z,101390.59
2022-12-25T06:10:49.507Z,101389.72
2022-12-25T06:13:16.007Z,101395.75
2022-12-25T06:15:42.700Z,101385.38
2022-12-25T06:18:09.262Z,101387.94
2022-12-25T06:20:35.930Z,101394.03
2022-12-25T06:23:02.403Z,101396.63
2022-12-25T06:25:28.938Z,101393.19
2022-12-25T06:27:55.332Z,101386.25
2022-12-25T06:30:21.702Z,101381.06
2022-12-25T06:32:48.125Z,101394.09
2022-12-25T06:35:14.510Z,101388.06
2022-12-25T06:37:41.259Z,101387.19
2022-12-25T06:40:08.297Z,101390.69
2022-12-25T06:42:34.800Z,101395.88
2022-12-25T06:45:01.151Z,101395.84
2022-12-25T06:47:27.754Z,101398.47
2022-12-25T06:49:54.143Z,101397.63
2022-12-25T06:52:20.568Z,101393.28
2022-12-25T06:54:47.427Z,101395.88
2022-12-25T06:57:13.817Z,101399.31
2022-12-25T06:59:40.332Z,101399.31
2022-12-25T07:02:16.684Z,101398.41
2022-12-25T07:04:43.338Z,101394.94
2022-12-25T07:07:10.063Z,101403.56
2022-12-25T07:09:38.631Z,101400.13
2022-12-25T07:12:08.160Z,101409.66
2022-12-25T07:14:34.718Z,101414.84
2022-12-25T07:17:01.201Z,101414.84
2022-12-25T07:19:27.780Z,101408.78
2022-12-25T07:21:54.154Z,101413.97
2022-12-25T07:24:21.475Z,101413.97
2022-12-25T07:26:48.909Z,101412.22
2022-12-25T07:29:15.397Z,101409.63
2022-12-25T07:31:41.928Z,101413.09
2022-12-25T07:34:08.735Z,101403.56
2022-12-25T07:36:35.175Z,101406.16
2022-12-25T07:39:01.575Z,101411.34
2022-12-25T07:41:28.024Z,101419.16
2022-12-25T07:44:12.726Z,101420.94
2022-12-25T07:46:39.093Z,101415.72
2022-12-25T07:49:05.507Z,101410.47
2022-12-25T07:51:31.975Z,101410.47
2022-12-25T07:53:58.430Z,101413.91
2022-12-25T07:56:24.839Z,101410.41
2022-12-25T07:58:51.212Z,101399.16
2022-12-25T08:01:21.229Z,101399.13
2022-12-25T08:03:55.907Z,101396.50
2022-12-25T08:06:26.689Z,101391.31
2022-12-25T08:08:53.126Z,101387.84
2022-12-25T08:11:19.633Z,101403.47
2022-12-25T08:13:46.009Z,101398.22
2022-12-25T08:16:12.651Z,101380.84
2022-12-25T08:18:39.909Z,101367.84
2022-12-25T08:21:09.206Z,101366.03
2022-12-25T08:23:37.684Z,101366.03
2022-12-25T08:26:06.042Z,101370.31
2022-12-25T08:28:34.246Z,101364.28
2022-12-25T08:31:08.382Z,101372.06
2022-12-25T08:33:35.767Z,101367.69
2022-12-25T08:36:07.466Z,101374.63
2022-12-25T08:38:33.858Z,101377.25
2022-12-25T08:41:00.407Z,101381.59
2022-12-25T08:43:27.088Z,101384.16
2022-12-25T08:45:53.531Z,101381.59
2022-12-25T08:48:19.945Z,101378.13
2022-12-25T08:50:47.742Z,101370.22
2022-12-25T08:53:14.486Z,101377.16
2022-12-25T08:55:41.167Z,101384.09
2022-12-25T08:58:07.709Z,101382.31
2022-12-25T09:00:34.206Z,101384.91
2022-12-25T09:03:00.885Z,101390.06
2022-12-25T09:05:27.547Z,101390.06
2022-12-25T09:07:53.911Z,101390.06
2022-12-25T09:10:20.392Z,101388.34
2022-12-25T09:12:46.802Z,101390.09
2022-12-25T09:15:13.277Z,101390.97
2022-12-25T09:17:39.681Z,101385.81
2022-12-25T09:20:07.082Z,101396.25
2022-12-25T09:22:34.109Z,101378.03
2022-12-25T09:25:00.512Z,101382.34
2022-12-25T09:27:26.899Z,101383.19
2022-12-25T09:29:53.367Z,101389.25
2022-12-25T09:32:19.743Z,101395.34
2022-12-25T09:34:46.149Z,101387.50
2022-12-25T09:37:12.522Z,101398.81
2022-12-25T09:39:45.903Z,101395.34
2022-12-25T09:42:19.004Z,101387.59
2022-12-25T09:44:57.815Z,101392.78
2022-12-25T09:47:29.346Z,101392.81
2022-12-25T09:50:06.668Z,101384.09
2022-12-25T09:52:46.497Z,101390.13
2022-12-25T09:55:20.547Z,101384.06
2022-12-25T09:57:52.621Z,101393.59
2022-12-25T10:00:22.378Z,101383.13
2022-12-25T10:02:57.645Z,101394.44
2022-12-25T10:05:58.838Z,101390.94
2022-12-25T10:08:37.497Z,101385.69
2022-12-25T10:11:26.602Z,101389.09
2022-12-25T10:14:19.320Z,101391.69
2022-12-25T10:17:21.739Z,101387.31
2022-12-25T10:20:00.444Z,101383.78
2022-12-25T10:22:34.817Z,101386.38
2022-12-25T10:25:03.138Z,101372.47
2022-12-25T10:27:38.987Z,101356.75
2022-12-25T10:30:15.353Z,101361.97
2022-12-25T10:32:42.868Z,101354.13
2022-12-25T10:35:15.024Z,101347.22
2022-12-25T10:37:43.093Z,101328.94
2022-12-25T10:40:36.711Z,101331.50
2022-12-25T10:43:17.663Z,101322.75
2022-12-25T10:45:48.998Z,101322.81
2022-12-25T10:48:25.108Z,101317.59
2022-12-25T10:50:52.181Z,101317.59
2022-12-25T10:53:25.109Z,101319.25
2022-12-25T10:56:02.703Z,101322.69
2022-12-25T10:58:30.354Z,101319.19
2022-12-25T11:01:08.298Z,101319.13
2022-12-25T11:03:39.205Z,101315.66
2022-12-25T11:06:07.411Z,101298.28
2022-12-25T11:08:34.948Z,101292.19
2022-12-25T11:11:06.322Z,101292.97
2022-12-25T11:13:36.259Z,101285.16
2022-12-25T11:16:12.872Z,101260.81
2022-12-25T11:18:53.569Z,101265.13
2022-12-25T11:21:34.327Z,101257.19
2022-12-25T11:24:06.787Z,101261.53
2022-12-25T11:26:50.359Z,101268.44
2022-12-25T11:29:37.698Z,101246.69
2022-12-25T11:32:05.676Z,101264.06
2022-12-25T11:34:45.069Z,101266.81
2022-12-25T11:37:17.514Z,101257.38
2022-12-25T11:39:44.149Z,101253.06
2022-12-25T11:42:28.960Z,101259.97
2022-12-25T11:45:17.312Z,101259.06
2022-12-25T11:47:58.210Z,101263.34
2022-12-25T11:50:46.747Z,101252.00
2022-12-25T11:53:20.914Z,101245.91
2022-12-25T11:55:54.693Z,101249.34
2022-12-25T11:58:39.637Z,101248.50
2022-12-25T12:01:15.512Z,101253.72
2022-12-25T12:03:42.818Z,101253.84
2022-12-25T12:06:38.408Z,101256.41
2022-12-25T12:09:32.429Z,101249.50
2022-12-25T12:12:23.872Z,101246.00
2022-12-25T12:15:08.203Z,101252.94
2022-12-25T12:17:34.912Z,101253.84
2022-12-25T12:20:32.232Z,101246.13
2022-12-25T12:23:00.975Z,101258.38
2022-12-25T12:25:28.924Z,101264.38
2022-12-25T12:28:05.173Z,101252.16
2022-12-25T12:30:35.841Z,101247.75
2022-12-25T12:33:05.979Z,101238.16
2022-12-25T12:35:35.991Z,101238.16
2022-12-25T12:38:05.445Z,101231.19
2022-12-25T12:40:42.691Z,101221.59
2022-12-25T12:43:31.106Z,101219.84
2022-12-25T12:46:16.062Z,101217.16
2022-12-25T12:48:45.799Z,101212.75
2022-12-25T12:51:26.156Z,101216.22
2022-12-25T12:54:20.135Z,101211.13
2022-12-25T12:57:01.783Z,101200.63
2022-12-25T12:59:38.929Z,101190.16
2022-12-25T13:02:39.408Z,101178.88
2022-12-25T13:05:18.031Z,101177.94
2022-12-25T13:08:07.639Z,101152.66
2022-12-25T13:10:41.144Z,101152.63
2022-12-25T13:13:37.027Z,101142.13
2022-12-25T13:16:03.796Z,101152.50
2022-12-25T13:18:31.734Z,101155.09
2022-12-25T13:21:05.013Z,101156.81
2022-12-25T13:23:36.811Z,101167.25
2022-12-25T13:26:06.093Z,101161.13
2022-12-25T13:28:35.571Z,101158.50
2022-12-25T13:31:23.137Z,101146.31
2022-12-25T13:34:00.647Z,101136.72
2022-12-25T13:36:29.978Z,101121.03
2022-12-25T13:38:57.780Z,101130.63
2022-12-25T13:41:46.199Z,101130.63
2022-12-25T13:44:19.436Z,101125.41
2022-12-25T13:46:47.088Z,101127.97
2022-12-25T13:49:16.954Z,101124.47
2022-12-25T13:51:43.841Z,101140.13
2022-12-25T13:54:12.929Z,101134.09
2022-12-25T13:56:51.531Z,101132.38
2022-12-25T13:59:21.635Z,101131.50
2022-12-25T14:01:49.899Z,101128.00
2022-12-25T14:04:19.924Z,101128.03
2022-12-25T14:06:47.046Z,101125.50
2022-12-25T14:09:14.409Z,101130.75
2022-12-25T14:11:45.675Z,101120.31
2022-12-25T14:14:18.837Z,101122.03
2022-12-25T14:16:51.220Z,101115.06
2022-12-25T14:19:30.590Z,101127.28
2022-12-25T14:22:22.455Z,101128.19
2022-12-25T14:24:49.366Z,101116.94
2022-12-25T14:27:22.942Z,101113.44
2022-12-25T14:29:52.137Z,101102.09
2022-12-25T14:32:27.896Z,101098.66
2022-12-25T14:34:59.363Z,101089.94
2022-12-25T14:37:29.881Z,101077.75
2022-12-25T14:40:05.050Z,101074.28
2022-12-25T14:42:35.092Z,101076.91
2022-12-25T14:45:06.289Z,101076.03
2022-12-25T14:47:39.601Z,101075.25
2022-12-25T14:50:26.030Z,101073.63
2022-12-25T14:52:53.737Z,101070.16
2022-12-25T14:55:27.206Z,101066.63
2022-12-25T14:58:05.754Z,101067.50
2022-12-25T15:00:35.468Z,101064.06
2022-12-25T15:03:08.736Z,101071.00
2022-12-25T15:05:39.691Z,101064.03
2022-12-25T15:08:06.383Z,101055.34
2022-12-25T15:13:20.538Z,101070.97
2022-12-25T15:15:51.677Z,101060.53
2022-12-25T15:18:20.606Z,101062.28
2022-12-25T15:20:47.000Z,101064.00
2022-12-25T15:23:20.140Z,101060.50
2022-12-25T15:25:47.686Z,101068.38
2022-12-25T15:28:14.091Z,101073.56
2022-12-25T15:30:40.640Z,101062.19
2022-12-25T15:33:09.035Z,101056.97
2022-12-25T15:35:38.354Z,101053.44
2022-12-25T15:38:05.367Z,101051.72
2022-12-25T15:40:31.751Z,101041.25
2022-12-25T15:42:58.091Z,101036.88
2022-12-25T15:45:27.415Z,101036.00
2022-12-25T15:47:54.176Z,101025.56
2022-12-25T15:50:20.992Z,101016.88
2022-12-25T15:52:47.956Z,101019.47
2022-12-25T15:55:15.277Z,101014.22
2022-12-25T15:57:43.775Z,101019.47
2022-12-25T16:00:19.682Z,101019.50
2022-12-25T16:02:46.364Z,101015.16
2022-12-25T16:05:12.992Z,101008.22
2022-12-25T16:07:39.636Z,101006.47
2022-12-25T16:10:11.315Z,101009.06
2022-12-25T16:12:39.005Z,101016.03
2022-12-25T16:15:06.023Z,101011.72
2022-12-25T16:17:32.409Z,101003.84
2022-12-25T16:19:58.874Z,101000.34
2022-12-25T16:22:28.516Z,100996.84
2022-12-25T16:24:55.317Z,100986.41
2022-12-25T16:27:22.149Z,100991.59
2022-12-25T16:29:48.725Z,100985.53
2022-12-25T16:32:15.682Z,100984.66
2022-12-25T16:34:42.181Z,100977.69
2022-12-25T16:37:08.634Z,100976.84
2022-12-25T16:39:35.084Z,100967.25
2022-12-25T16:42:01.484Z,100967.25
2022-12-25T16:44:28.014Z,100962.03
2022-12-25T16:46:54.583Z,100969.88
2022-12-25T16:49:21.072Z,100962.91
2022-12-25T16:51:47.544Z,100958.56
2022-12-25T16:54:13.960Z,100951.59
2022-12-25T16:56:41.394Z,100955.97
2022-12-25T16:59:07.741Z,100943.78
2022-12-25T17:01:34.452Z,100938.63
2022-12-25T17:04:03.928Z,100946.47
2022-12-25T17:06:30.578Z,100942.13
2022-12-25T17:08:58.973Z,100931.69
2022-12-25T17:11:29.566Z,100935.19
2022-12-25T17:14:02.024Z,100932.59
2022-12-25T17:16:31.084Z,100935.22
2022-12-25T17:19:01.233Z,100930.00
2022-12-25T17:21:29.021Z,100917.84
2022-12-25T17:24:01.657Z,100923.09
2022-12-25T17:26:31.737Z,100921.38
2022-12-25T17:28:58.311Z,100917.91
2022-12-25T17:31:24.840Z,100919.66
2022-12-25T17:33:51.517Z,100917.03
2022-12-25T17:36:20.371Z,100915.28
2022-12-25T17:38:47.713Z,100913.53
2022-12-25T17:41:16.285Z,100913.56
2022-12-25T17:43:45.389Z,100904.91
2022-12-25T17:46:14.978Z,100908.38
2022-12-25T17:48:41.596Z,100905.75
2022-12-25T17:51:12.098Z,100890.97
2022-12-25T17:53:41.089Z,100896.19
2022-12-25T17:56:09.665Z,100898.78
2022-12-25T17:58:37.056Z,100884.88
2022-12-25T18:01:15.205Z,100887.50
2022-12-25T18:03:47.540Z,100879.72
2022-12-25T18:06:17.467Z,100876.28
2022-12-25T18:08:45.932Z,100871.06
2022-12-25T18:11:15.259Z,100864.09
2022-12-25T18:13:44.697Z,100853.69
2022-12-25T18:16:12.862Z,100852.84
2022-12-25T18:18:40.405Z,100841.56
2022-12-25T18:21:08.429Z,100849.38
2022-12-25T18:23:36.109Z,100859.81
2022-12-25T18:26:04.745Z,100854.63
2022-12-25T18:28:32.281Z,100853.81
2022-12-25T18:30:59.269Z,100847.81
2022-12-25T18:33:27.246Z,100841.75
2022-12-25T18:35:59.202Z,100841.66
2022-12-25T18:38:27.640Z,100828.63
2022-12-25T18:40:54.436Z,100830.38
2022-12-25T18:43:21.088Z,100829.47
2022-12-25T18:46:07.638Z,100821.66
2022-12-25T18:48:35.775Z,100815.56
2022-12-25T18:51:05.352Z,100807.75
2022-12-25T18:53:32.861Z,100806.00
2022-12-25T18:56:05.699Z,100802.53
2022-12-25T18:58:32.386Z,100799.94
2022-12-25T19:00:59.369Z,100794.69
2022-12-25T19:03:26.201Z,100791.19
2022-12-25T19:05:52.966Z,100786.81
2022-12-25T19:08:19.568Z,100781.56
2022-12-25T19:10:46.402Z,100783.28
2022-12-25T19:13:13.278Z,100771.09
2022-12-25T19:15:43.643Z,100772.78
2022-12-25T19:18:10.611Z,100771.91
2022-12-25T19:20:40.915Z,100767.50
2022-12-25T19:23:08.290Z,100759.69
2022-12-25T19:25:34.749Z,100753.56
2022-12-25T19:28:02.305Z,100750.97
2022-12-25T19:30:28.699Z,100750.09
2022-12-25T19:32:55.150Z,100750.09
2022-12-25T19:35:21.636Z,100742.22
2022-12-25T19:37:48.240Z,100741.38
2022-12-25T19:40:14.619Z,100738.78
2022-12-25T19:42:41.314Z,100736.13
2022-12-25T19:45:08.164Z,100744.81
2022-12-25T19:47:34.911Z,100737.88
2022-12-25T19:50:03.310Z,100733.50
2022-12-25T19:52:30.188Z,100726.53
2022-12-25T19:54:56.640Z,100730.00
2022-12-25T19:57:23.215Z,100723.06
2022-12-25T19:59:49.967Z,100718.66
2022-12-25T20:02:17.056Z,100716.06
2022-12-25T20:04:43.773Z,100711.69
2022-12-25T20:07:10.340Z,100708.25
2022-12-25T20:09:36.965Z,100705.59
2022-12-25T20:12:03.563Z,100713.41
2022-12-25T20:14:29.924Z,100716.88
2022-12-25T20:16:57.614Z,100720.34
2022-12-25T20:19:24.093Z,100716.03
2022-12-25T20:21:50.556Z,100708.19
2022-12-25T20:24:17.019Z,100697.72
2022-12-25T20:26:47.528Z,100692.50
2022-12-25T20:29:14.734Z,100709.91
2022-12-25T20:31:41.188Z,100711.66
2022-12-25T20:34:10.169Z,100714.31
2022-12-25T20:36:38.151Z,100715.16
2022-12-25T20:39:09.154Z,100711.69
2022-12-25T20:41:36.117Z,100709.09
2022-12-25T20:44:04.145Z,100705.59
2022-12-25T20:46:30.673Z,100701.22
2022-12-25T20:48:57.143Z,100706.47
2022-12-25T20:51:25.709Z,100698.66
2022-12-25T20:53:52.371Z,100700.38
2022-12-25T20:56:21.965Z,100700.41
2022-12-25T20:58:52.941Z,100710.00
2022-12-25T21:01:19.657Z,100707.38
2022-12-25T21:03:46.136Z,100709.09
2022-12-25T21:06:12.822Z,100713.50
2022-12-25T21:08:40.805Z,100709.13
2022-12-25T21:11:08.449Z,100715.22
2022-12-25T21:13:37.931Z,100703.03
2022-12-25T21:16:06.454Z,100703.91
2022-12-25T21:18:32.863Z,100707.38
2022-12-25T21:21:01.016Z,100711.69
2022-12-25T21:23:28.847Z,100711.69
2022-12-25T21:25:55.255Z,100704.72
2022-12-25T21:28:22.698Z,100698.66
2022-12-25T21:30:49.337Z,100702.13
2022-12-25T21:33:34.808Z,100699.50
2022-12-25T21:36:11.582Z,100696.06
2022-12-25T21:38:39.182Z,100690.88
2022-12-25T21:41:08.137Z,100680.50
2022-12-25T21:43:35.900Z,100687.41
2022-12-25T21:46:08.105Z,100691.81
2022-12-25T21:48:36.366Z,100690.97
2022-12-25T21:51:32.078Z,100685.81
2022-12-25T21:53:59.012Z,100676.28
2022-12-25T21:56:28.174Z,100669.34
2022-12-25T21:58:54.760Z,100673.72
2022-12-25T22:01:21.290Z,100671.13
2022-12-25T22:03:47.913Z,100674.59
2022-12-25T22:06:32.863Z,100684.13
2022-12-25T22:09:00.100Z,100680.63
2022-12-25T22:11:45.750Z,100681.47
2022-12-25T22:14:51.497Z,100678.00
2022-12-25T22:17:44.521Z,100675.34
2022-12-25T22:20:21.221Z,100673.59
2022-12-25T22:22:47.656Z,100672.75
2022-12-25T22:25:15.485Z,100670.94
2022-12-25T22:27:43.470Z,100664.84
2022-12-25T22:30:13.342Z,100663.94
2022-12-25T22:32:40.177Z,100670.00
2022-12-25T22:35:07.028Z,100672.63
2022-12-25T22:37:33.551Z,100676.06
2022-12-25T22:40:02.113Z,100673.50
2022-12-25T22:42:28.768Z,100675.22
2022-12-25T22:44:55.216Z,100683.09
2022-12-25T22:47:23.878Z,100690.88
2022-12-25T22:49:50.380Z,100685.69
2022-12-25T22:52:16.973Z,100675.28
2022-12-25T22:54:43.368Z,100678.69
2022-12-25T22:57:09.854Z,100678.69
2022-12-25T22:59:36.362Z,100685.63
2022-12-25T23:02:02.825Z,100684.72
2022-12-25T23:04:29.516Z,100678.69
2022-12-25T23:06:56.569Z,100678.69
2022-12-25T23:09:27.533Z,100689.06
2022-12-25T23:11:55.739Z,100679.50
2022-12-25T23:14:40.610Z,100681.22
2022-12-25T23:17:31.170Z,100682.91
2022-12-25T23:20:17.760Z,100687.25
2022-12-25T23:23:03.462Z,100694.22
2022-12-25T23:25:48.335Z,100687.31
2022-12-25T23:28:34.915Z,100689.16
2022-12-25T23:31:01.431Z,100695.31
2022-12-25T23:33:27.878Z,100686.72
2022-12-25T23:35:54.249Z,100677.16
2022-12-25T23:38:20.731Z,100684.03
2022-12-25T23:40:47.076Z,100689.28
2022-12-25T23:43:13.589Z,100690.09
2022-12-25T23:45:40.228Z,100684.84
2022-12-25T23:48:06.644Z,100687.50
2022-12-25T23:50:33.751Z,100681.38
2022-12-25T23:53:00.672Z,100676.16
2022-12-25T23:55:29.984Z,100670.91
2022-12-25T23:57:56.340Z,100661.31
